Time;durP1;ratioP1;P1;durP2;ratioP2;P2;SDS_P1;SDS_P2;PMS_P1;PMS_P2;Temp;Humidity;BMP_temperature;BMP_pressure;BME280_temperature;BME280_humidity;BME280_pressure;Samples;Min_cycle;Max_cycle;Signal;HPM_P1;HPM_P2
2022/12/28 00:01:07;;;;;;;3.67;1.93;;;0.80;99.90;-0.30;96651.00;;;;5053622;28;20218;-59
2022/12/28 00:03:35;;;;;;;1.37;1.27;;;0.80;99.90;-0.20;96650.00;;;;5053583;28;20752;-62
2022/12/28 00:06:03;;;;;;;1.73;1.63;;;0.90;99.90;-0.20;96637.00;;;;5053853;28;20200;-61
2022/12/28 00:08:30;;;;;;;1.47;1.37;;;0.90;99.90;-0.10;96636.00;;;;5053801;28;20193;-60
2022/12/28 00:11:00;;;;;;;1.60;1.50;;;1.00;99.90;-0.10;96636.00;;;;5036039;28;20539;-57
2022/12/28 00:13:30;;;;;;;1.20;1.20;;;1.00;99.90;-0.10;96640.00;;;;5053407;28;20245;-60
2022/12/28 00:15:57;;;;;;;1.30;1.20;;;1.00;99.90;0.00;96645.00;;;;5053682;28;20193;-60
2022/12/28 00:18:25;;;;;;;0.87;0.87;;;1.10;99.90;0.00;96632.00;;;;5053371;28;20189;-60
2022/12/28 00:20:59;;;;;;;1.30;1.20;;;1.10;99.90;0.00;96639.00;;;;5053235;28;20221;-60
2022/12/28 00:23:27;;;;;;;1.50;0.90;;;1.10;99.90;0.00;96637.00;;;;5035394;28;20712;-60
2022/12/28 00:25:54;;;;;;;0.93;0.93;;;1.10;99.90;0.30;96635.00;;;;5035379;28;20197;-60
2022/12/28 00:28:22;;;;;;;0.87;0.87;;;1.30;99.90;0.20;96639.00;;;;5053487;28;20197;-60
2022/12/28 00:30:50;;;;;;;1.33;1.23;;;1.20;99.90;0.20;96637.00;;;;5052507;28;20660;-60
2022/12/28 00:33:17;;;;;;;2.13;1.93;;;1.20;99.90;0.20;96641.00;;;;5053626;28;20223;-60
2022/12/28 00:35:44;;;;;;;1.07;0.90;;;1.20;99.90;0.20;96621.00;;;;5053106;28;20197;-60
2022/12/28 00:38:11;;;;;;;1.27;1.20;;;1.20;99.90;0.20;96623.00;;;;5053611;28;20258;-60
2022/12/28 00:40:38;;;;;;;1.67;1.57;;;1.20;99.90;0.20;96617.00;;;;5053247;28;20229;-60
2022/12/28 00:43:05;;;;;;;1.00;1.00;;;1.30;99.90;0.30;96620.00;;;;5052861;28;20212;-60
2022/12/28 00:45:32;;;;;;;1.27;1.13;;;1.30;99.90;0.40;96614.00;;;;5052942;28;20587;-60
2022/12/28 00:48:00;;;;;;;1.27;1.27;;;1.40;99.90;0.60;96622.00;;;;5053197;28;20191;-60
2022/12/28 00:50:27;;;;;;;1.33;1.23;;;1.50;99.90;0.60;96610.00;;;;5052938;28;20193;-59
2022/12/28 00:52:54;;;;;;;0.80;0.80;;;1.60;99.90;0.60;96613.00;;;;5053035;28;20205;-59
2022/12/28 00:55:21;;;;;;;1.60;1.50;;;1.60;99.90;0.70;96616.00;;;;5052927;28;20198;-60
2022/12/28 00:57:48;;;;;;;1.40;1.37;;;1.70;99.90;0.70;96605.00;;;;5053165;28;20555;-60
2022/12/28 01:00:16;;;;;;;0.60;0.60;;;1.70;99.90;0.70;96603.00;;;;5052766;28;20209;-60
2022/12/28 01:02:43;;;;;;;1.00;1.00;;;1.70;99.90;0.80;96593.00;;;;5052758;28;20215;-60
2022/12/28 01:05:12;;;;;;;0.80;0.80;;;1.80;99.90;0.90;96585.00;;;;5052870;28;20195;-59
2022/12/28 01:07:39;;;;;;;0.90;0.90;;;1.90;99.90;1.00;96590.00;;;;5052844;28;20258;-60
2022/12/28 01:10:07;;;;;;;1.57;1.10;;;1.90;99.90;1.10;96585.00;;;;5053002;28;20187;-60
2022/12/28 01:12:34;;;;;;;0.97;0.97;;;2.00;99.90;0.90;96588.00;;;;5052661;28;20215;-60
2022/12/28 01:15:01;;;;;;;0.90;0.90;;;2.00;99.90;1.00;96586.00;;;;5052964;28;20193;-59
2022/12/28 01:17:28;;;;;;;0.87;0.87;;;2.00;99.90;1.00;96580.00;;;;5034801;28;20211;-60
2022/12/28 01:19:56;;;;;;;0.90;0.90;;;2.00;99.90;1.00;96581.00;;;;5052565;28;20202;-60
2022/12/28 01:22:24;;;;;;;0.70;0.70;;;2.00;99.90;1.10;96576.00;;;;5052551;28;20725;-60
2022/12/28 01:24:51;;;;;;;0.77;0.77;;;2.10;99.90;1.20;96574.00;;;;5052641;28;20298;-60
2022/12/28 01:27:19;;;;;;;0.80;0.80;;;2.20;99.90;1.10;96586.00;;;;5052595;28;20194;-60
2022/12/28 01:29:46;;;;;;;0.80;0.80;;;2.20;99.90;1.10;96578.00;;;;5052841;28;20545;-60
2022/12/28 01:32:13;;;;;;;0.60;0.60;;;2.20;99.90;1.40;96568.00;;;;5052464;28;20208;-60
2022/12/28 01:34:40;;;;;;;0.90;0.90;;;2.30;99.90;1.30;96566.00;;;;5034686;28;20639;-60
2022/12/28 01:37:07;;;;;;;0.80;0.80;;;2.30;99.90;1.30;96554.00;;;;5052508;28;20294;-60
2022/12/28 01:39:35;;;;;;;1.00;1.00;;;2.30;99.90;1.30;96558.00;;;;5052723;28;20203;-60
2022/12/28 01:42:02;;;;;;;22.20;1.80;;;2.30;99.90;1.20;96552.00;;;;5052826;28;20226;-60
2022/12/28 01:44:45;;;;;;;0.80;0.80;;;2.30;99.90;1.20;96550.00;;;;5081347;22;20299;-54
2022/12/28 01:47:21;;;;;;;0.70;0.70;;;2.30;99.90;1.40;96544.00;;;;5076510;28;20625;-56
2022/12/28 01:50:00;;;;;;;0.70;0.70;;;2.30;99.90;1.30;96551.00;;;;5076454;28;20185;-56
2022/12/28 01:52:35;;;;;;;1.13;1.10;;;2.30;99.90;1.10;96547.00;;;;5076174;28;20203;-56
2022/12/28 01:55:11;;;;;;;0.80;0.80;;;2.20;99.90;1.20;96539.00;;;;5076039;28;20218;-55
2022/12/28 01:57:43;;;;;;;0.90;0.90;;;2.30;99.90;1.30;96535.00;;;;5076017;28;20244;-54
2022/12/28 02:00:14;;;;;;;0.77;0.77;;;2.30;99.90;1.40;96536.00;;;;5076192;28;20182;-55
2022/12/28 02:02:48;;;;;;;0.97;0.97;;;2.30;99.90;1.50;96532.00;;;;5075910;28;20194;-56
2022/12/28 02:05:17;;;;;;;0.90;0.90;;;2.40;99.90;1.40;96528.00;;;;5075841;28;20218;-55
2022/12/28 02:07:53;;;;;;;1.07;1.07;;;2.40;99.90;1.50;96535.00;;;;5076058;28;20201;-56
2022/12/28 02:10:24;;;;;;;0.80;0.80;;;2.40;99.90;1.50;96529.00;;;;5075817;28;20201;-55
2022/12/28 02:12:52;;;;;;;0.80;0.80;;;2.50;99.90;1.60;96517.00;;;;5076009;28;20178;-55
2022/12/28 02:15:19;;;;;;;0.80;0.80;;;2.50;99.90;1.60;96527.00;;;;5075603;28;20214;-56
2022/12/28 02:17:46;;;;;;;0.63;0.63;;;2.60;99.90;1.70;96519.00;;;;5075624;28;20189;-55
2022/12/28 02:20:14;;;;;;;1.10;1.10;;;2.60;99.90;1.50;96512.00;;;;5075458;28;20251;-55
2022/12/28 02:23:27;;;;;;;0.67;0.67;;;2.50;99.90;1.60;96510.00;;;;5057592;28;20573;-55
2022/12/28 02:26:38;;;;;;;1.13;1.13;;;2.60;99.90;1.70;96517.00;;;;5071922;28;20214;-55
2022/12/28 02:29:52;;;;;;;0.70;0.70;;;2.60;99.90;1.80;96512.00;;;;5075988;28;20171;-56
2022/12/28 02:32:40;;;;;;;1.03;1.03;;;2.70;99.60;1.70;96494.00;;;;5075688;28;20197;-56
2022/12/28 02:35:17;;;;;;;1.10;1.10;;;2.70;99.90;1.80;96493.00;;;;5075288;28;20214;-55
2022/12/28 02:37:48;;;;;;;0.70;0.70;;;2.70;99.90;1.70;96490.00;;;;5075803;28;20184;-56
2022/12/28 02:40:23;;;;;;;0.70;0.70;;;2.70;99.90;1.80;96479.00;;;;5075223;28;20181;-55
2022/12/28 02:42:53;;;;;;;1.00;1.00;;;2.70;99.80;1.70;96491.00;;;;5075129;28;20179;-55
2022/12/28 02:51:30;;;;;;;0.60;0.60;;;2.80;99.90;1.80;96461.00;;;;5075118;28;20195;-56
2022/12/28 02:57:59;;;;;;;1.03;1.03;;;2.70;99.90;1.70;96448.00;;;;5052711;28;20221;-56
2022/12/28 03:00:39;;;;;;;1.27;1.10;;;2.70;99.90;1.90;96446.00;;;;5074780;28;20186;-56
2022/12/28 03:03:23;;;;;;;1.17;1.17;;;2.80;99.90;1.70;96438.00;;;;5074754;28;20182;-56
2022/12/28 03:08:54;;;;;;;0.60;0.60;;;2.70;99.90;1.70;96443.00;;;;5074677;28;20186;-55
2022/12/28 03:11:33;;;;;;;0.93;0.93;;;2.70;99.90;1.80;96453.00;;;;5057514;28;20194;-55
2022/12/28 03:14:08;;;;;;;0.70;0.70;;;2.70;99.90;1.60;96441.00;;;;5075033;28;20213;-55
2022/12/28 03:33:26;;;;;;;0.73;0.73;;;2.90;99.90;2.10;96429.00;;;;5074135;28;20215;-55
2022/12/28 03:36:04;;;;;;;0.60;0.60;;;3.00;99.60;2.10;96420.00;;;;5074120;28;20261;-55
2022/12/28 03:38:42;;;;;;;0.97;0.97;;;3.10;99.00;2.00;96413.00;;;;5074341;28;20189;-55
2022/12/28 03:41:14;;;;;;;1.47;1.37;;;3.00;98.60;2.00;96412.00;;;;5074529;28;20210;-56
2022/12/28 03:43:48;;;;;;;1.13;1.13;;;3.00;99.00;2.00;96389.00;;;;5073879;28;20704;-56
2022/12/28 03:46:23;;;;;;;0.63;0.63;;;2.90;98.90;2.00;96402.00;;;;5056030;28;20201;-55
2022/12/28 03:48:52;;;;;;;1.20;1.20;;;3.00;99.20;2.10;96407.00;;;;5074163;28;20546;-55
2022/12/28 03:51:23;;;;;;;0.70;0.70;;;3.00;99.60;2.10;96403.00;;;;5073819;28;20194;-56
2022/12/28 03:53:51;;;;;;;1.07;1.07;;;3.00;99.30;2.10;96405.00;;;;5074006;28;20208;-55
2022/12/28 03:56:20;;;;;;;0.60;0.60;;;3.10;99.20;2.20;96413.00;;;;5073709;28;20703;-57
2022/12/28 03:58:48;;;;;;;1.00;1.00;;;3.10;99.20;2.00;96404.00;;;;5073665;28;20244;-56
2022/12/28 04:01:15;;;;;;;1.13;1.13;;;3.10;98.60;2.00;96403.00;;;;5073563;28;20268;-55
2022/12/28 04:03:43;;;;;;;1.00;1.00;;;3.00;98.60;2.00;96405.00;;;;5073466;28;20218;-56
2022/12/28 04:06:15;;;;;;;0.70;0.70;;;3.00;98.70;2.00;96398.00;;;;5055700;28;20198;-56
2022/12/28 04:08:42;;;;;;;0.87;0.87;;;3.00;98.90;2.20;96389.00;;;;5073962;28;20183;-56
2022/12/28 04:11:11;;;;;;;0.60;0.60;;;3.10;98.50;2.10;96384.00;;;;5074255;28;20606;-56
2022/12/28 04:13:38;;;;;;;0.73;0.73;;;3.10;98.70;2.10;96391.00;;;;5073657;28;20210;-55
2022/12/28 04:16:10;;;;;;;0.63;0.63;;;3.10;98.80;2.20;96393.00;;;;5073429;28;20273;-56
2022/12/28 04:18:38;;;;;;;0.60;0.60;;;3.20;98.90;2.10;96391.00;;;;5073578;28;20680;-54
2022/12/28 04:21:05;;;;;;;0.80;0.80;;;3.10;98.60;2.10;96389.00;;;;5073270;28;20620;-56
2022/12/28 04:23:34;;;;;;;0.83;0.83;;;3.10;98.90;2.10;96386.00;;;;5073436;28;20218;-56
2022/12/28 04:26:05;;;;;;;0.90;0.90;;;3.10;99.10;2.10;96389.00;;;;5073506;28;20245;-55
2022/12/28 04:28:33;;;;;;;1.10;1.10;;;3.10;99.30;2.10;96389.00;;;;5073310;28;20183;-55
2022/12/28 04:31:03;;;;;;;0.97;0.97;;;3.10;99.20;2.10;96387.00;;;;5073408;28;20204;-56
2022/12/28 04:33:34;;;;;;;2.10;1.90;;;3.10;99.30;2.10;96389.00;;;;5073567;28;20227;-56
2022/12/28 04:36:05;;;;;;;0.80;0.80;;;3.10;99.40;2.20;96394.00;;;;5073238;28;20180;-56
2022/12/28 04:38:35;;;;;;;0.60;0.60;;;3.20;99.30;2.20;96389.00;;;;5073454;28;20183;-55
2022/12/28 04:41:04;;;;;;;1.10;1.10;;;3.20;99.10;2.20;96384.00;;;;5072966;28;20191;-56
2022/12/28 04:43:32;;;;;;;0.70;0.70;;;3.20;99.30;2.40;96383.00;;;;5073021;28;20218;-56
2022/12/28 04:46:02;;;;;;;1.10;1.10;;;3.30;99.20;2.40;96382.00;;;;5073080;28;20195;-56
2022/12/28 04:48:29;;;;;;;0.60;0.60;;;3.40;98.30;2.40;96376.00;;;;5072988;28;20256;-55
2022/12/28 04:50:56;;;;;;;0.80;0.80;;;3.30;98.20;2.30;96379.00;;;;5073045;28;20184;-56
2022/12/28 04:53:24;;;;;;;0.90;0.90;;;3.30;98.00;2.30;96381.00;;;;5072904;28;20711;-56
2022/12/28 04:55:54;;;;;;;2.10;1.17;;;3.30;98.30;2.50;96388.00;;;;5073004;28;20658;-56
2022/12/28 04:58:20;;;;;;;0.80;0.80;;;3.40;98.20;2.40;96384.00;;;;5072926;28;20195;-55
2022/12/28 05:00:47;;;;;;;0.57;0.57;;;3.40;98.10;2.40;96369.00;;;;5072873;28;20715;-55
2022/12/28 05:03:14;;;;;;;0.60;0.60;;;3.40;98.60;2.40;96357.00;;;;5073028;28;20215;-56
2022/12/28 05:05:41;;;;;;;0.50;0.50;;;3.40;98.60;2.50;96364.00;;;;5072819;28;20198;-56
2022/12/28 05:08:08;;;;;;;0.70;0.70;;;3.40;98.60;2.60;96360.00;;;;5073117;28;20195;-55
2022/12/28 05:10:36;;;;;;;0.70;0.70;;;3.50;98.50;2.60;96352.00;;;;5072798;28;20244;-56
2022/12/28 05:13:04;;;;;;;0.70;0.70;;;3.50;98.50;2.60;96357.00;;;;5072706;28;20244;-55
2022/12/28 05:15:31;;;;;;;0.60;0.60;;;3.50;98.50;2.70;96348.00;;;;5073265;28;20229;-55
2022/12/28 05:17:58;;;;;;;1.33;1.33;;;3.70;97.30;2.90;96358.00;;;;5074897;28;20670;-55
2022/12/28 05:20:25;;;;;;;0.77;0.60;;;3.80;97.40;3.00;96355.00;;;;5076752;28;20214;-56
2022/12/28 05:22:52;;;;;;;0.67;0.67;;;3.90;96.70;2.90;96355.00;;;;5076874;28;20278;-56
2022/12/28 05:25:19;;;;;;;0.60;0.60;;;3.90;96.10;2.90;96355.00;;;;5076578;28;20357;-55
2022/12/28 05:27:46;;;;;;;0.70;0.70;;;3.80;96.40;2.80;96360.00;;;;5076632;28;20666;-56
2022/12/28 05:30:14;;;;;;;0.60;0.60;;;3.80;96.30;2.80;96365.00;;;;5076827;28;20557;-56
2022/12/28 05:32:41;;;;;;;0.60;0.60;;;3.80;96.50;2.70;96359.00;;;;5076773;28;20196;-56
2022/12/28 05:35:09;;;;;;;1.07;1.07;;;3.70;96.80;2.70;96360.00;;;;5076333;28;20203;-56
2022/12/28 05:37:36;;;;;;;0.50;0.50;;;3.70;97.00;2.70;96353.00;;;;5076653;28;20538;-54
2022/12/28 05:40:05;;;;;;;0.60;0.60;;;3.70;96.90;2.70;96358.00;;;;5076357;28;20187;-55
2022/12/28 05:42:32;;;;;;;0.80;0.80;;;3.70;96.70;2.80;96360.00;;;;5076762;28;20208;-56
2022/12/28 05:44:59;;;;;;;0.90;0.90;;;3.70;97.00;2.70;96352.00;;;;5058147;28;20223;-56
2022/12/28 05:47:27;;;;;;;0.70;0.70;;;3.70;96.80;2.70;96343.00;;;;5076233;28;20246;-55
2022/12/28 05:49:54;;;;;;;0.60;0.60;;;3.70;96.80;2.70;96349.00;;;;5076181;28;20195;-56
2022/12/28 05:52:21;;;;;;;0.60;0.60;;;3.70;96.90;2.70;96349.00;;;;5076016;28;20202;-55
2022/12/28 05:54:48;;;;;;;0.63;0.63;;;3.70;97.20;2.80;96335.00;;;;5076055;28;20210;-55
2022/12/28 05:57:15;;;;;;;0.60;0.60;;;3.70;97.40;2.80;96329.00;;;;5076065;28;20199;-56
2022/12/28 05:59:42;;;;;;;0.70;0.70;;;3.70;97.50;2.80;96324.00;;;;5076007;28;20202;-56
2022/12/28 06:02:09;;;;;;;0.83;0.83;;;3.70;97.60;2.80;96324.00;;;;5076139;28;20624;-56
2022/12/28 06:04:37;;;;;;;0.60;0.60;;;3.80;97.60;3.00;96315.00;;;;5076001;28;20252;-55
2022/12/28 06:07:05;;;;;;;0.70;0.70;;;3.80;97.30;3.00;96324.00;;;;5075808;28;20241;-55
2022/12/28 06:09:32;;;;;;;0.60;0.60;;;3.90;97.10;3.00;96312.00;;;;5076256;28;20249;-56
2022/12/28 06:11:59;;;;;;;0.90;0.90;;;3.90;96.80;3.00;96307.00;;;;5075979;28;20620;-56
2022/12/28 06:14:26;;;;;;;10.70;1.07;;;3.90;96.40;3.00;96319.00;;;;5075849;28;20215;-56
2022/12/28 06:16:53;;;;;;;0.73;0.73;;;3.90;96.80;3.10;96298.00;;;;5076448;28;20239;-56
2022/12/28 06:19:20;;;;;;;0.50;0.50;;;4.00;96.40;3.00;96311.00;;;;5075980;28;20240;-56
2022/12/28 06:21:48;;;;;;;0.60;0.60;;;4.00;96.50;3.00;96306.00;;;;5076037;28;20272;-56
2022/12/28 06:24:17;;;;;;;0.87;0.87;;;4.00;96.40;3.00;96299.00;;;;5075960;28;20231;-56
2022/12/28 06:26:45;;;;;;;0.97;0.97;;;3.90;96.50;3.10;96305.00;;;;5075969;28;20199;-56
2022/12/28 06:29:12;;;;;;;0.70;0.70;;;4.00;96.20;3.10;96307.00;;;;5074481;28;20638;-55
2022/12/28 06:31:45;;;;;;;0.70;0.70;;;4.00;96.20;3.10;96293.00;;;;5075620;28;20188;-55
2022/12/28 06:34:13;;;;;;;0.90;0.90;;;4.00;96.20;3.00;96302.00;;;;5075446;28;20222;-56
2022/12/28 06:36:42;;;;;;;0.60;0.60;;;;;3.10;96302.00;;;;5075257;28;20654;-56
2022/12/28 06:39:13;;;;;;;0.70;0.70;;;4.00;95.40;3.20;96298.00;;;;5075258;28;20663;-56
2022/12/28 06:41:41;;;;;;;1.00;1.00;;;4.10;96.00;3.20;96302.00;;;;5075403;28;20289;-56
2022/12/28 06:44:11;;;;;;;0.63;0.63;;;4.10;96.10;3.20;96300.00;;;;5075024;28;20211;-56
2022/12/28 06:46:39;;;;;;;0.60;0.60;;;4.20;95.40;3.20;96301.00;;;;5075221;28;20199;-55
2022/12/28 06:49:06;;;;;;;0.70;0.70;;;4.10;95.40;3.10;96295.00;;;;5075080;28;20191;-56
2022/12/28 06:51:39;;;;;;;0.60;0.60;;;4.10;95.40;3.10;96289.00;;;;5075280;28;20631;-56
2022/12/28 06:54:07;;;;;;;0.60;0.60;;;4.10;95.90;3.10;96280.00;;;;5074917;28;20280;-56
2022/12/28 06:56:37;;;;;;;0.73;0.73;;;4.10;96.20;3.20;96278.00;;;;5074894;28;20195;-56
2022/12/28 06:59:05;;;;;;;0.87;0.83;;;4.10;95.90;3.30;96281.00;;;;5075695;28;20186;-56
2022/12/28 07:01:35;;;;;;;0.70;0.70;;;4.20;95.20;3.40;96263.00;;;;5074713;28;20654;-55
2022/12/28 07:04:05;;;;;;;0.60;0.60;;;4.30;95.00;3.50;96269.00;;;;5074753;28;20277;-56
2022/12/28 07:06:37;;;;;;;0.80;0.80;;;4.40;94.30;3.50;96275.00;;;;5075232;28;20195;-55
2022/12/28 07:09:06;;;;;;;0.60;0.60;;;4.40;93.90;3.50;96279.00;;;;5074951;28;20214;-55
2022/12/28 07:11:35;;;;;;;0.73;0.73;;;4.40;94.20;3.60;96286.00;;;;5074952;28;20229;-56
2022/12/28 07:14:03;;;;;;;0.60;0.60;;;4.50;94.20;3.60;96274.00;;;;5074971;28;20210;-55
2022/12/28 07:16:30;;;;;;;0.57;0.57;;;4.50;92.70;3.70;96279.00;;;;5075013;28;20260;-55
2022/12/28 07:18:59;;;;;;;0.97;0.97;;;4.50;93.40;3.60;96275.00;;;;5074460;28;20244;-55
2022/12/28 07:21:31;;;;;;;0.87;0.87;;;4.50;93.80;3.50;96273.00;;;;5074389;28;20187;-55
2022/12/28 07:23:59;;;;;;;0.80;0.80;;;4.50;94.10;3.60;96270.00;;;;5074254;28;20226;-56
2022/12/28 07:26:29;;;;;;;1.00;1.00;;;4.40;94.10;3.50;96250.00;;;;5074276;28;20195;-56
2022/12/28 07:29:00;;;;;;;2.70;0.97;;;4.40;94.10;3.50;96265.00;;;;5074671;28;20176;-54
2022/12/28 07:31:30;;;;;;;0.60;0.60;;;4.50;94.30;3.50;96270.00;;;;5074160;28;20187;-56
2022/12/28 07:33:59;;;;;;;0.60;0.60;;;4.50;94.10;3.50;96265.00;;;;5074240;28;20215;-56
2022/12/28 07:36:30;;;;;;;0.70;0.70;;;4.50;93.70;3.60;96268.00;;;;5074056;28;20192;-54
2022/12/28 07:38:58;;;;;;;0.70;0.70;;;4.50;93.80;3.60;96269.00;;;;5074589;28;20619;-54
2022/12/28 07:41:28;;;;;;;0.70;0.70;;;4.50;93.90;3.60;96267.00;;;;5073953;28;20290;-54
2022/12/28 07:43:57;;;;;;;3.37;3.07;;;4.50;93.80;3.60;96263.00;;;;5086065;22;20238;-60
2022/12/28 07:46:28;;;;;;;0.80;0.80;;;4.60;93.60;3.60;96260.00;;;;5053853;28;20295;-60
2022/12/28 07:48:55;;;;;;;0.63;0.63;;;4.60;93.10;3.70;96262.00;;;;5054482;28;20185;-60
2022/12/28 07:51:27;;;;;;;1.63;1.53;;;4.70;92.70;3.70;96260.00;;;;5054086;28;20203;-60
2022/12/28 07:53:56;;;;;;;0.60;0.60;;;4.70;92.90;3.70;96250.00;;;;5053811;28;20219;-60
2022/12/28 07:56:24;;;;;;;0.70;0.70;;;;;3.90;96248.00;;;;5053737;28;20216;-60
2022/12/28 07:58:55;;;;;;;0.60;0.60;;;4.70;92.40;4.00;96250.00;;;;5053727;28;20211;-60
2022/12/28 08:01:27;;;;;;;0.60;0.60;;;4.80;92.40;4.00;96252.00;;;;5053668;28;20238;-60
2022/12/28 08:03:58;;;;;;;0.83;0.83;;;4.90;91.80;4.00;96231.00;;;;5053690;28;20220;-60
2022/12/28 08:06:26;;;;;;;0.70;0.70;;;4.90;91.50;4.20;96247.00;;;;5035725;28;20184;-60
2022/12/28 08:08:59;;;;;;;0.80;0.80;;;5.00;91.40;4.20;96248.00;;;;5053450;28;20191;-60
2022/12/28 08:11:29;;;;;;;0.67;0.67;;;5.10;90.90;4.40;96251.00;;;;5053533;28;20176;-60
2022/12/28 08:13:58;;;;;;;0.60;0.60;;;5.20;89.20;4.50;96233.00;;;;5053863;28;20223;-59
2022/12/28 08:16:30;;;;;;;0.60;0.60;;;5.30;90.00;4.40;96241.00;;;;5053619;28;20555;-60
2022/12/28 08:18:57;;;;;;;1.07;1.07;;;5.30;89.30;4.60;96244.00;;;;5053357;28;20188;-61
2022/12/28 08:21:28;;;;;;;1.40;1.00;;;5.40;89.00;4.50;96248.00;;;;5053191;28;20192;-60
2022/12/28 08:23:56;;;;;;;2.73;0.83;;;5.40;88.30;4.50;96250.00;;;;5053283;28;20220;-61
2022/12/28 08:26:26;;;;;;;0.70;0.70;;;5.40;88.40;4.80;96248.00;;;;5053191;28;20266;-59
2022/12/28 08:28:57;;;;;;;0.60;0.60;;;5.50;87.60;4.70;96255.00;;;;5053379;28;20557;-60
2022/12/28 08:31:29;;;;;;;0.80;0.80;;;5.60;87.10;4.60;96255.00;;;;5053453;28;20191;-60
2022/12/28 08:33:59;;;;;;;0.70;0.70;;;5.50;87.80;4.80;96238.00;;;;5053185;28;20222;-60
2022/12/28 08:36:27;;;;;;;0.60;0.60;;;5.70;87.20;4.50;96247.00;;;;5053390;28;20192;-60
2022/12/28 08:38:56;;;;;;;1.90;1.47;;;5.50;86.40;4.20;96247.00;;;;5052993;28;20203;-60
2022/12/28 08:41:25;;;;;;;0.73;0.73;;;5.30;87.50;4.60;96244.00;;;;5053045;28;20202;-60
2022/12/28 08:43:53;;;;;;;0.70;0.70;;;5.40;88.60;4.80;96239.00;;;;5052989;28;20208;-60
2022/12/28 08:46:23;;;;;;;0.80;0.80;;;5.70;87.00;4.90;96248.00;;;;5053221;28;20183;-60
2022/12/28 08:48:54;;;;;;;0.67;0.67;;;5.60;87.50;4.90;96245.00;;;;5052958;28;20235;-60
2022/12/28 08:51:26;;;;;;;0.83;0.83;;;5.70;87.50;4.90;96245.00;;;;5052919;28;20191;-60
2022/12/28 08:53:54;;;;;;;0.60;0.60;;;5.80;87.20;5.20;96247.00;;;;5052718;28;20213;-60
2022/12/28 08:56:23;;;;;;;0.60;0.60;;;5.90;86.80;5.20;96239.00;;;;5052944;28;20645;-59
2022/12/28 08:58:52;;;;;;;0.70;0.70;;;6.00;85.20;5.40;96237.00;;;;5053213;28;20196;-60
2022/12/28 09:01:22;;;;;;;0.67;0.67;;;6.20;84.40;5.50;96227.00;;;;5052977;28;20197;-60
2022/12/28 09:03:53;;;;;;;0.67;0.67;;;6.20;84.00;5.50;96231.00;;;;5052784;28;20216;-59
2022/12/28 09:06:24;;;;;;;0.77;0.77;;;6.40;82.90;5.50;96231.00;;;;5053492;28;20177;-59
2022/12/28 09:08:54;;;;;;;0.60;0.60;;;6.30;81.70;5.50;96234.00;;;;5052922;28;20179;-59
2022/12/28 09:11:22;;;;;;;0.53;0.53;;;6.30;81.90;5.50;96227.00;;;;5053123;28;20194;-60
2022/12/28 09:13:49;;;;;;;0.60;0.60;;;6.30;82.90;5.50;96213.00;;;;5052701;28;20196;-60
2022/12/28 09:16:19;;;;;;;0.60;0.60;;;6.30;81.80;5.60;96231.00;;;;5052817;28;20196;-60
2022/12/28 09:18:47;;;;;;;0.50;0.50;;;6.40;81.40;5.70;96228.00;;;;5052766;28;20196;-60
2022/12/28 09:21:19;;;;;;;0.60;0.60;;;6.40;82.80;5.70;96217.00;;;;5034826;28;20566;-60
2022/12/28 09:23:47;;;;;;;0.80;0.80;;;6.50;81.20;5.70;96219.00;;;;5052873;28;20204;-60
2022/12/28 09:26:17;;;;;;;0.60;0.60;;;6.50;80.60;5.70;96220.00;;;;5052979;28;20585;-60
2022/12/28 09:28:46;;;;;;;0.70;0.70;;;6.50;81.30;5.90;96211.00;;;;5052967;28;20231;-60
2022/12/28 09:31:13;;;;;;;0.50;0.50;;;6.70;79.80;5.90;96207.00;;;;5052643;28;20199;-60
2022/12/28 09:34:00;;;;;;;0.60;0.60;;;6.60;81.30;6.00;96216.00;;;;5052584;28;20195;-60
2022/12/28 09:36:31;;;;;;;1.23;1.23;;;6.70;78.60;5.90;96215.00;;;;5052578;28;20196;-61
2022/12/28 09:39:00;;;;;;;0.60;0.60;;;6.60;78.40;5.90;96203.00;;;;5052619;28;20176;-59
2022/12/28 09:41:32;;;;;;;0.50;0.50;;;6.70;79.50;5.90;96217.00;;;;5052550;28;20199;-60
2022/12/28 09:44:19;;;;;;;0.60;0.60;;;6.70;79.10;6.00;96219.00;;;;5052705;28;20227;-60
2022/12/28 09:46:52;;;;;;;0.50;0.50;;;6.80;79.40;6.30;96207.00;;;;5052515;28;20196;-60
2022/12/28 09:49:25;;;;;;;1.30;1.20;;;7.00;78.50;6.20;96207.00;;;;5052951;28;20234;-60
2022/12/28 09:52:04;;;;;;;0.70;0.70;;;6.90;78.90;6.30;96198.00;;;;5034550;28;20640;-60
2022/12/28 09:54:31;;;;;;;0.60;0.60;;;7.10;78.80;6.30;96209.00;;;;5052519;28;20212;-60
2022/12/28 09:56:59;;;;;;;0.90;0.90;;;7.10;78.00;6.40;96208.00;;;;5052366;28;20195;-60
2022/12/28 09:59:34;;;;;;;0.60;0.60;;;7.20;78.30;6.40;96217.00;;;;5053452;28;20199;-61
2022/12/28 10:02:04;;;;;;;0.60;0.60;;;7.20;77.30;6.60;96203.00;;;;5052405;28;20176;-59
2022/12/28 10:04:31;;;;;;;1.20;1.10;;;7.30;78.80;6.60;96212.00;;;;5055067;28;20227;-59
2022/12/28 10:07:01;;;;;;;0.73;0.73;;;7.30;77.60;6.70;96211.00;;;;5056122;28;20203;-60
2022/12/28 10:09:33;;;;;;;0.60;0.60;;;7.40;75.00;6.60;96202.00;;;;5056145;28;20593;-59
2022/12/28 10:12:11;;;;;;;1.00;1.00;;;7.20;76.20;6.30;96205.00;;;;5055782;28;20190;-60
2022/12/28 10:14:38;;;;;;;0.60;0.60;;;7.10;78.00;6.60;96202.00;;;;5055886;28;20215;-60
2022/12/28 10:17:06;;;;;;;0.60;0.60;;;7.30;78.70;6.90;96193.00;;;;5055684;28;20678;-60
2022/12/28 10:19:33;;;;;;;1.00;1.00;;;7.50;77.70;7.20;96190.00;;;;5055746;28;20195;-60
2022/12/28 10:22:04;;;;;;;0.60;0.60;;;7.80;76.40;7.20;96191.00;;;;5037651;28;20758;-60
2022/12/28 10:24:33;;;;;;;0.53;0.53;;;7.80;73.20;7.00;96191.00;;;;5055510;28;20222;-60
2022/12/28 10:27:03;;;;;;;1.00;1.00;;;7.80;75.40;6.80;96178.00;;;;5055497;28;20191;-60
2022/12/28 10:29:33;;;;;;;0.70;0.70;;;7.60;75.40;7.00;96180.00;;;;5055767;28;20199;-59
2022/12/28 10:32:02;;;;;;;0.53;0.53;;;;;7.20;96173.00;;;;5055460;28;20717;-60
2022/12/28 10:34:32;;;;;;;0.60;0.60;;;;;7.20;96180.00;;;;5055607;28;20569;-60
2022/12/28 10:37:08;;;;;;;0.60;0.60;;;7.90;73.90;7.10;96171.00;;;;5055681;28;20274;-60
2022/12/28 10:39:36;;;;;;;0.60;0.60;;;7.90;73.40;7.10;96181.00;;;;5055523;28;20184;-60
2022/12/28 10:42:04;;;;;;;0.70;0.70;;;7.90;73.60;7.10;96176.00;;;;5055300;28;20195;-60
2022/12/28 10:44:35;;;;;;;0.60;0.60;;;7.90;73.20;7.10;96178.00;;;;5054844;28;20239;-60
2022/12/28 10:47:06;;;;;;;0.57;0.57;;;7.90;74.60;7.10;96174.00;;;;5055479;28;20184;-60
2022/12/28 10:49:37;;;;;;;0.60;0.60;;;7.90;73.70;7.20;96178.00;;;;5055434;28;20179;-60
2022/12/28 10:52:20;;;;;;;0.60;0.60;;;7.90;75.00;7.00;96189.00;;;;5055629;28;20227;-60
2022/12/28 10:54:47;;;;;;;0.97;0.97;;;7.80;74.00;6.70;96168.00;;;;5039095;28;20216;-60
2022/12/28 10:57:18;;;;;;;0.60;0.60;;;7.60;75.70;6.90;96156.00;;;;5055003;28;20203;-60
2022/12/28 10:59:48;;;;;;;0.80;0.80;;;7.60;73.60;6.90;96150.00;;;;5054941;28;20264;-60
2022/12/28 11:02:28;;;;;;;0.70;0.70;;;7.60;74.80;7.00;96159.00;;;;5054890;28;20211;-59
2022/12/28 11:04:59;;;;;;;0.60;0.60;;;7.70;75.20;7.10;96151.00;;;;5055051;28;20224;-60
2022/12/28 11:07:32;;;;;;;0.90;0.90;;;7.80;72.50;6.80;96149.00;;;;5054816;28;20187;-59
2022/12/28 11:10:23;;;;;;;0.50;0.50;;;7.70;73.40;7.00;96143.00;;;;5055331;28;20187;-58
2022/12/28 11:12:52;;;;;;;0.60;0.60;;;7.80;73.60;7.00;96141.00;;;;5054715;28;20643;-59
2022/12/28 11:15:22;;;;;;;0.77;0.77;;;7.70;73.50;7.00;96135.00;;;;5036068;28;20225;-60
2022/12/28 11:17:56;;;;;;;0.60;0.60;;;7.70;73.00;6.80;96126.00;;;;5054948;28;20184;-60
2022/12/28 11:20:28;;;;;;;0.80;0.80;;;;;6.90;96135.00;;;;5055140;28;20180;-60
2022/12/28 11:22:56;;;;;;;0.70;0.70;;;7.60;72.90;6.90;96122.00;;;;5054627;28;20192;-60
2022/12/28 11:25:31;;;;;;;0.63;0.63;;;7.60;74.10;6.60;96126.00;;;;5054447;28;20219;-60
2022/12/28 11:28:00;;;;;;;0.90;0.90;;;7.40;75.40;6.80;96121.00;;;;5054653;28;20270;-60
2022/12/28 11:30:27;;;;;;;0.60;0.60;;;7.50;76.30;6.90;96107.00;;;;5054637;28;20202;-61
2022/12/28 11:32:58;;;;;;;1.00;1.00;;;7.50;75.50;7.10;96101.00;;;;5054320;28;20192;-60
2022/12/28 11:35:30;;;;;;;0.60;0.60;;;7.70;74.80;7.30;96109.00;;;;5054265;28;20216;-60
2022/12/28 11:38:01;;;;;;;0.93;0.93;;;7.90;72.50;7.10;96097.00;;;;5054177;28;20612;-60
2022/12/28 11:40:51;;;;;;;0.60;0.60;;;7.80;73.50;7.60;96092.00;;;;5054170;28;20176;-60
2022/12/28 11:43:51;;;;;;;0.60;0.60;;;8.10;71.70;8.50;96063.00;;;;5054345;28;20632;-60
2022/12/28 11:46:41;;;;;;;0.60;0.60;;;10.00;64.30;10.90;96037.00;;;;4993196;28;20243;-60
2022/12/28 11:49:33;;;;;;;0.50;0.50;;;10.50;61.30;11.10;96061.00;;;;5050717;28;20671;-61
2022/12/28 11:52:46;;;;;;;0.83;0.83;;;11.50;51.50;11.00;96078.00;;;;5036090;28;20260;-60
2022/12/28 11:55:49;;;;;;;0.53;0.53;;;11.60;50.30;9.60;96083.00;;;;5053735;28;20212;-62